Eureka の空港の天気 - METARとTAF

Eureka ( CWEU / ) - カナダ ヌナブト準州Eureka
飛行場実況気象(Metar)
観測時間01/23 02:00 CST (01/23 08:00 UTC)
風向・風速東北東 2m/s
視程10km以上
天気現象細氷
なし
気温-37℃
湿度66%
気圧1019.6hPa
METARCWEU 230800Z 06004KT 15SM IC SKC M37/M41 A3010 RMK SLP196
過去の天気等 Google飛行場航空写真 Wunderground天気予報

過去48時間のMETAR

飛行場予報(TAF)
データがありません